sensor_id;sensor_type;location;lat;lon;timestamp;P1;durP1;ratioP1;P2;durP2;ratioP2
6269;SDS011;3168;51.684;6.954;2023-12-14T00:01:54;6.00;;;5.13;;
6269;SDS011;3168;51.684;6.954;2023-12-14T00:04:21;4.50;;;4.00;;
6269;SDS011;3168;51.684;6.954;2023-12-14T00:06:46;5.87;;;5.30;;
6269;SDS011;3168;51.684;6.954;2023-12-14T00:09:12;5.77;;;4.50;;
6269;SDS011;3168;51.684;6.954;2023-12-14T00:11:39;4.37;;;3.93;;
6269;SDS011;3168;51.684;6.954;2023-12-14T00:14:05;3.83;;;3.53;;
6269;SDS011;3168;51.684;6.954;2023-12-14T00:16:31;5.53;;;4.73;;
6269;SDS011;3168;51.684;6.954;2023-12-14T00:18:57;3.93;;;3.43;;
6269;SDS011;3168;51.684;6.954;2023-12-14T00:21:22;6.63;;;4.63;;
6269;SDS011;3168;51.684;6.954;2023-12-14T00:23:48;6.40;;;5.70;;
6269;SDS011;3168;51.684;6.954;2023-12-14T00:26:14;6.03;;;5.10;;
6269;SDS011;3168;51.684;6.954;2023-12-14T00:28:40;12.50;;;6.77;;
6269;SDS011;3168;51.684;6.954;2023-12-14T00:31:06;11.50;;;8.33;;
6269;SDS011;3168;51.684;6.954;2023-12-14T00:33:32;19.57;;;10.07;;
6269;SDS011;3168;51.684;6.954;2023-12-14T00:35:57;12.67;;;9.20;;
6269;SDS011;3168;51.684;6.954;2023-12-14T00:38:23;22.43;;;10.37;;
6269;SDS011;3168;51.684;6.954;2023-12-14T00:40:49;11.23;;;8.07;;
6269;SDS011;3168;51.684;6.954;2023-12-14T00:43:15;13.53;;;8.70;;
6269;SDS011;3168;51.684;6.954;2023-12-14T00:45:41;14.33;;;8.77;;
6269;SDS011;3168;51.684;6.954;2023-12-14T00:48:07;19.10;;;11.87;;
6269;SDS011;3168;51.684;6.954;2023-12-14T00:50:33;19.87;;;10.50;;
6269;SDS011;3168;51.684;6.954;2023-12-14T00:52:58;12.20;;;9.30;;
6269;SDS011;3168;51.684;6.954;2023-12-14T00:55:24;18.77;;;8.40;;
6269;SDS011;3168;51.684;6.954;2023-12-14T00:57:50;12.33;;;8.00;;
6269;SDS011;3168;51.684;6.954;2023-12-14T01:00:17;21.43;;;7.90;;
6269;SDS011;3168;51.684;6.954;2023-12-14T01:02:43;11.30;;;7.50;;
6269;SDS011;3168;51.684;6.954;2023-12-14T01:05:09;9.63;;;7.13;;
6269;SDS011;3168;51.684;6.954;2023-12-14T01:07:35;17.33;;;9.33;;
6269;SDS011;3168;51.684;6.954;2023-12-14T01:10:01;15.50;;;7.70;;
6269;SDS011;3168;51.684;6.954;2023-12-14T01:12:27;20.67;;;10.97;;
6269;SDS011;3168;51.684;6.954;2023-12-14T01:14:53;8.00;;;6.93;;
6269;SDS011;3168;51.684;6.954;2023-12-14T01:17:19;14.93;;;9.57;;
6269;SDS011;3168;51.684;6.954;2023-12-14T01:19:44;12.40;;;8.47;;
6269;SDS011;3168;51.684;6.954;2023-12-14T01:22:10;11.70;;;7.67;;
6269;SDS011;3168;51.684;6.954;2023-12-14T01:24:36;21.30;;;8.93;;
6269;SDS011;3168;51.684;6.954;2023-12-14T01:27:02;15.37;;;8.83;;
6269;SDS011;3168;51.684;6.954;2023-12-14T01:29:28;22.93;;;8.30;;
6269;SDS011;3168;51.684;6.954;2023-12-14T01:31:54;12.70;;;9.50;;
6269;SDS011;3168;51.684;6.954;2023-12-14T01:34:20;15.70;;;10.17;;
6269;SDS011;3168;51.684;6.954;2023-12-14T01:36:46;14.53;;;8.13;;
6269;SDS011;3168;51.684;6.954;2023-12-14T01:39:11;12.50;;;9.07;;
6269;SDS011;3168;51.684;6.954;2023-12-14T01:41:38;15.37;;;10.73;;
6269;SDS011;3168;51.684;6.954;2023-12-14T01:44:04;18.07;;;8.30;;
6269;SDS011;3168;51.684;6.954;2023-12-14T01:46:30;20.93;;;9.87;;
6269;SDS011;3168;51.684;6.954;2023-12-14T01:48:55;11.30;;;8.67;;
6269;SDS011;3168;51.684;6.954;2023-12-14T01:51:21;11.73;;;8.47;;
6269;SDS011;3168;51.684;6.954;2023-12-14T01:53:47;14.37;;;9.20;;
6269;SDS011;3168;51.684;6.954;2023-12-14T01:56:13;17.07;;;9.93;;
6269;SDS011;3168;51.684;6.954;2023-12-14T01:58:39;17.60;;;10.53;;
6269;SDS011;3168;51.684;6.954;2023-12-14T02:01:10;13.73;;;8.93;;
6269;SDS011;3168;51.684;6.954;2023-12-14T02:03:45;9.87;;;7.03;;
6269;SDS011;3168;51.684;6.954;2023-12-14T02:06:10;12.60;;;8.23;;
6269;SDS011;3168;51.684;6.954;2023-12-14T02:08:36;19.57;;;10.27;;
6269;SDS011;3168;51.684;6.954;2023-12-14T02:11:03;13.27;;;8.03;;
6269;SDS011;3168;51.684;6.954;2023-12-14T02:13:29;14.13;;;7.50;;
6269;SDS011;3168;51.684;6.954;2023-12-14T02:15:55;11.87;;;7.13;;
6269;SDS011;3168;51.684;6.954;2023-12-14T02:18:21;13.90;;;7.50;;
6269;SDS011;3168;51.684;6.954;2023-12-14T02:20:46;11.30;;;8.60;;
6269;SDS011;3168;51.684;6.954;2023-12-14T02:23:12;16.53;;;8.07;;
6269;SDS011;3168;51.684;6.954;2023-12-14T02:25:38;16.17;;;8.23;;
6269;SDS011;3168;51.684;6.954;2023-12-14T02:28:04;18.90;;;10.27;;
6269;SDS011;3168;51.684;6.954;2023-12-14T02:30:30;13.97;;;8.63;;
6269;SDS011;3168;51.684;6.954;2023-12-14T02:32:56;10.57;;;7.77;;
6269;SDS011;3168;51.684;6.954;2023-12-14T02:35:21;14.50;;;7.47;;
6269;SDS011;3168;51.684;6.954;2023-12-14T02:37:47;13.87;;;9.00;;
6269;SDS011;3168;51.684;6.954;2023-12-14T02:40:13;14.23;;;8.20;;
6269;SDS011;3168;51.684;6.954;2023-12-14T02:42:39;26.73;;;9.33;;
6269;SDS011;3168;51.684;6.954;2023-12-14T02:45:06;14.60;;;8.30;;
6269;SDS011;3168;51.684;6.954;2023-12-14T02:47:33;13.37;;;7.77;;
6269;SDS011;3168;51.684;6.954;2023-12-14T02:49:59;10.80;;;9.37;;
6269;SDS011;3168;51.684;6.954;2023-12-14T02:52:25;16.03;;;10.43;;
6269;SDS011;3168;51.684;6.954;2023-12-14T02:54:51;10.63;;;6.63;;
6269;SDS011;3168;51.684;6.954;2023-12-14T02:57:17;12.47;;;8.90;;
6269;SDS011;3168;51.684;6.954;2023-12-14T02:59:43;14.33;;;8.83;;
6269;SDS011;3168;51.684;6.954;2023-12-14T03:02:09;12.23;;;7.90;;
6269;SDS011;3168;51.684;6.954;2023-12-14T03:04:34;18.27;;;8.97;;
6269;SDS011;3168;51.684;6.954;2023-12-14T03:07:00;12.67;;;8.53;;
6269;SDS011;3168;51.684;6.954;2023-12-14T03:09:26;9.70;;;8.57;;
6269;SDS011;3168;51.684;6.954;2023-12-14T03:11:52;17.50;;;9.20;;
6269;SDS011;3168;51.684;6.954;2023-12-14T03:14:18;11.53;;;7.27;;
6269;SDS011;3168;51.684;6.954;2023-12-14T03:16:44;14.00;;;8.73;;
6269;SDS011;3168;51.684;6.954;2023-12-14T03:19:09;19.73;;;7.83;;
6269;SDS011;3168;51.684;6.954;2023-12-14T03:21:35;11.83;;;8.40;;
6269;SDS011;3168;51.684;6.954;2023-12-14T03:24:01;15.17;;;8.07;;
6269;SDS011;3168;51.684;6.954;2023-12-14T03:26:28;16.03;;;8.10;;
6269;SDS011;3168;51.684;6.954;2023-12-14T03:28:54;21.83;;;8.73;;
6269;SDS011;3168;51.684;6.954;2023-12-14T03:31:19;12.63;;;7.23;;
6269;SDS011;3168;51.684;6.954;2023-12-14T03:33:45;10.83;;;6.40;;
6269;SDS011;3168;51.684;6.954;2023-12-14T03:36:11;13.13;;;7.83;;
6269;SDS011;3168;51.684;6.954;2023-12-14T03:38:37;19.07;;;9.77;;
6269;SDS011;3168;51.684;6.954;2023-12-14T03:41:03;13.27;;;8.00;;
6269;SDS011;3168;51.684;6.954;2023-12-14T03:43:29;13.17;;;8.50;;
6269;SDS011;3168;51.684;6.954;2023-12-14T03:45:55;7.63;;;6.67;;
6269;SDS011;3168;51.684;6.954;2023-12-14T03:48:20;25.37;;;7.70;;
6269;SDS011;3168;51.684;6.954;2023-12-14T03:50:46;12.23;;;8.37;;
6269;SDS011;3168;51.684;6.954;2023-12-14T03:53:12;10.97;;;8.27;;
6269;SDS011;3168;51.684;6.954;2023-12-14T03:55:38;16.47;;;8.40;;
6269;SDS011;3168;51.684;6.954;2023-12-14T03:58:04;19.87;;;9.50;;
6269;SDS011;3168;51.684;6.954;2023-12-14T04:00:30;19.57;;;8.80;;
6269;SDS011;3168;51.684;6.954;2023-12-14T04:02:56;11.67;;;7.90;;
6269;SDS011;3168;51.684;6.954;2023-12-14T04:05:22;26.23;;;10.17;;
6269;SDS011;3168;51.684;6.954;2023-12-14T04:07:48;17.83;;;9.70;;
6269;SDS011;3168;51.684;6.954;2023-12-14T04:10:14;19.53;;;10.07;;
6269;SDS011;3168;51.684;6.954;2023-12-14T04:12:40;14.07;;;8.43;;
6269;SDS011;3168;51.684;6.954;2023-12-14T04:15:07;11.73;;;8.47;;
6269;SDS011;3168;51.684;6.954;2023-12-14T04:17:32;14.37;;;9.03;;
6269;SDS011;3168;51.684;6.954;2023-12-14T04:19:58;13.67;;;9.00;;
6269;SDS011;3168;51.684;6.954;2023-12-14T04:22:24;12.07;;;9.20;;
6269;SDS011;3168;51.684;6.954;2023-12-14T04:24:50;23.33;;;9.73;;
6269;SDS011;3168;51.684;6.954;2023-12-14T04:27:15;17.57;;;8.60;;
6269;SDS011;3168;51.684;6.954;2023-12-14T04:29:41;28.43;;;9.70;;
6269;SDS011;3168;51.684;6.954;2023-12-14T04:32:08;15.97;;;9.43;;
6269;SDS011;3168;51.684;6.954;2023-12-14T04:34:33;16.53;;;11.10;;
6269;SDS011;3168;51.684;6.954;2023-12-14T04:36:59;18.17;;;10.80;;
6269;SDS011;3168;51.684;6.954;2023-12-14T04:39:25;16.30;;;10.53;;
6269;SDS011;3168;51.684;6.954;2023-12-14T04:41:51;18.33;;;9.80;;
6269;SDS011;3168;51.684;6.954;2023-12-14T04:44:17;15.87;;;8.47;;
6269;SDS011;3168;51.684;6.954;2023-12-14T04:46:43;18.63;;;10.00;;
6269;SDS011;3168;51.684;6.954;2023-12-14T04:49:09;27.63;;;10.63;;
6269;SDS011;3168;51.684;6.954;2023-12-14T04:51:35;24.17;;;11.80;;
6269;SDS011;3168;51.684;6.954;2023-12-14T04:54:01;19.03;;;11.07;;
6269;SDS011;3168;51.684;6.954;2023-12-14T04:56:26;17.60;;;11.33;;
6269;SDS011;3168;51.684;6.954;2023-12-14T04:58:52;18.60;;;11.23;;
6269;SDS011;3168;51.684;6.954;2023-12-14T05:01:18;15.13;;;9.90;;
6269;SDS011;3168;51.684;6.954;2023-12-14T05:03:44;22.73;;;11.80;;
6269;SDS011;3168;51.684;6.954;2023-12-14T05:06:10;24.93;;;10.67;;
6269;SDS011;3168;51.684;6.954;2023-12-14T05:08:36;27.93;;;11.67;;
6269;SDS011;3168;51.684;6.954;2023-12-14T05:11:01;20.63;;;10.77;;
6269;SDS011;3168;51.684;6.954;2023-12-14T05:13:27;22.50;;;10.20;;
6269;SDS011;3168;51.684;6.954;2023-12-14T05:15:54;23.63;;;10.10;;
6269;SDS011;3168;51.684;6.954;2023-12-14T05:18:20;18.63;;;9.90;;
6269;SDS011;3168;51.684;6.954;2023-12-14T05:20:46;20.70;;;11.63;;
6269;SDS011;3168;51.684;6.954;2023-12-14T05:23:12;15.93;;;10.73;;
6269;SDS011;3168;51.684;6.954;2023-12-14T05:25:38;20.80;;;10.77;;
6269;SDS011;3168;51.684;6.954;2023-12-14T05:28:03;17.80;;;11.00;;
6269;SDS011;3168;51.684;6.954;2023-12-14T05:30:29;22.50;;;11.40;;
6269;SDS011;3168;51.684;6.954;2023-12-14T05:32:55;12.93;;;9.80;;
6269;SDS011;3168;51.684;6.954;2023-12-14T05:35:21;15.23;;;8.80;;
6269;SDS011;3168;51.684;6.954;2023-12-14T05:37:47;17.50;;;10.77;;
6269;SDS011;3168;51.684;6.954;2023-12-14T05:40:12;15.33;;;9.53;;
6269;SDS011;3168;51.684;6.954;2023-12-14T05:42:38;20.60;;;10.47;;
6269;SDS011;3168;51.684;6.954;2023-12-14T05:45:05;16.57;;;8.37;;
6269;SDS011;3168;51.684;6.954;2023-12-14T05:47:32;13.70;;;8.90;;
6269;SDS011;3168;51.684;6.954;2023-12-14T05:49:58;20.70;;;10.30;;
6269;SDS011;3168;51.684;6.954;2023-12-14T05:52:24;10.33;;;7.23;;
6269;SDS011;3168;51.684;6.954;2023-12-14T05:54:49;11.53;;;7.80;;
6269;SDS011;3168;51.684;6.954;2023-12-14T05:57:15;12.47;;;8.87;;
6269;SDS011;3168;51.684;6.954;2023-12-14T05:59:41;15.60;;;8.87;;
6269;SDS011;3168;51.684;6.954;2023-12-14T06:02:07;15.57;;;7.90;;
6269;SDS011;3168;51.684;6.954;2023-12-14T06:04:33;9.17;;;7.60;;
6269;SDS011;3168;51.684;6.954;2023-12-14T06:06:59;13.00;;;8.23;;
6269;SDS011;3168;51.684;6.954;2023-12-14T06:09:24;16.40;;;9.00;;
6269;SDS011;3168;51.684;6.954;2023-12-14T06:11:50;16.50;;;8.00;;
6269;SDS011;3168;51.684;6.954;2023-12-14T06:14:16;13.17;;;9.20;;
6269;SDS011;3168;51.684;6.954;2023-12-14T06:16:42;14.30;;;9.13;;
6269;SDS011;3168;51.684;6.954;2023-12-14T06:19:15;12.57;;;7.67;;
6269;SDS011;3168;51.684;6.954;2023-12-14T06:21:58;9.97;;;8.07;;
6269;SDS011;3168;51.684;6.954;2023-12-14T06:24:23;17.60;;;7.43;;
6269;SDS011;3168;51.684;6.954;2023-12-14T06:26:49;9.30;;;7.57;;
6269;SDS011;3168;51.684;6.954;2023-12-14T06:29:15;12.90;;;8.00;;
6269;SDS011;3168;51.684;6.954;2023-12-14T06:31:41;8.70;;;7.60;;
6269;SDS011;3168;51.684;6.954;2023-12-14T06:34:07;12.70;;;9.80;;
6269;SDS011;3168;51.684;6.954;2023-12-14T06:36:33;15.17;;;9.50;;
6269;SDS011;3168;51.684;6.954;2023-12-14T06:38:59;13.03;;;9.07;;
6269;SDS011;3168;51.684;6.954;2023-12-14T06:41:25;18.93;;;10.37;;
6269;SDS011;3168;51.684;6.954;2023-12-14T06:43:51;21.63;;;12.50;;
6269;SDS011;3168;51.684;6.954;2023-12-14T06:46:16;18.23;;;10.37;;
6269;SDS011;3168;51.684;6.954;2023-12-14T06:48:43;25.97;;;11.93;;
6269;SDS011;3168;51.684;6.954;2023-12-14T06:51:09;18.57;;;10.17;;
6269;SDS011;3168;51.684;6.954;2023-12-14T06:53:35;20.43;;;9.90;;
6269;SDS011;3168;51.684;6.954;2023-12-14T06:56:02;23.50;;;13.00;;
6269;SDS011;3168;51.684;6.954;2023-12-14T06:58:28;16.87;;;10.07;;
6269;SDS011;3168;51.684;6.954;2023-12-14T07:00:54;22.10;;;11.23;;
6269;SDS011;3168;51.684;6.954;2023-12-14T07:03:20;21.63;;;11.90;;
6269;SDS011;3168;51.684;6.954;2023-12-14T07:05:45;21.73;;;11.67;;
6269;SDS011;3168;51.684;6.954;2023-12-14T07:08:11;25.00;;;11.60;;
6269;SDS011;3168;51.684;6.954;2023-12-14T07:10:37;19.30;;;11.77;;
6269;SDS011;3168;51.684;6.954;2023-12-14T07:13:03;16.77;;;11.33;;
6269;SDS011;3168;51.684;6.954;2023-12-14T07:15:29;16.77;;;10.00;;
6269;SDS011;3168;51.684;6.954;2023-12-14T07:17:55;16.93;;;12.07;;
6269;SDS011;3168;51.684;6.954;2023-12-14T07:20:21;21.33;;;11.20;;
6269;SDS011;3168;51.684;6.954;2023-12-14T07:22:47;19.37;;;10.60;;
6269;SDS011;3168;51.684;6.954;2023-12-14T07:25:13;18.87;;;10.53;;
6269;SDS011;3168;51.684;6.954;2023-12-14T07:27:39;15.83;;;9.53;;
6269;SDS011;3168;51.684;6.954;2023-12-14T07:30:05;16.87;;;8.57;;
6269;SDS011;3168;51.684;6.954;2023-12-14T07:32:32;14.73;;;8.60;;
6269;SDS011;3168;51.684;6.954;2023-12-14T07:34:58;19.97;;;10.33;;
6269;SDS011;3168;51.684;6.954;2023-12-14T07:37:24;21.57;;;9.53;;
6269;SDS011;3168;51.684;6.954;2023-12-14T07:39:50;22.90;;;11.07;;
6269;SDS011;3168;51.684;6.954;2023-12-14T07:42:16;23.43;;;12.27;;
6269;SDS011;3168;51.684;6.954;2023-12-14T07:44:42;20.30;;;11.53;;
6269;SDS011;3168;51.684;6.954;2023-12-14T07:47:08;21.70;;;10.87;;
6269;SDS011;3168;51.684;6.954;2023-12-14T07:49:33;20.37;;;11.03;;
6269;SDS011;3168;51.684;6.954;2023-12-14T07:51:59;28.00;;;10.83;;
6269;SDS011;3168;51.684;6.954;2023-12-14T07:54:25;23.90;;;11.20;;
6269;SDS011;3168;51.684;6.954;2023-12-14T07:56:52;19.53;;;11.60;;
6269;SDS011;3168;51.684;6.954;2023-12-14T07:59:18;22.40;;;13.27;;
6269;SDS011;3168;51.684;6.954;2023-12-14T08:01:44;21.63;;;12.50;;
6269;SDS011;3168;51.684;6.954;2023-12-14T08:04:10;22.53;;;11.33;;
6269;SDS011;3168;51.684;6.954;2023-12-14T08:06:37;21.33;;;11.90;;
6269;SDS011;3168;51.684;6.954;2023-12-14T08:09:02;16.77;;;9.90;;
6269;SDS011;3168;51.684;6.954;2023-12-14T08:11:29;24.90;;;11.50;;
6269;SDS011;3168;51.684;6.954;2023-12-14T08:13:54;24.87;;;13.40;;
6269;SDS011;3168;51.684;6.954;2023-12-14T08:16:20;32.07;;;14.30;;
6269;SDS011;3168;51.684;6.954;2023-12-14T08:18:46;21.27;;;12.67;;
6269;SDS011;3168;51.684;6.954;2023-12-14T08:21:12;21.80;;;11.63;;
6269;SDS011;3168;51.684;6.954;2023-12-14T08:23:38;23.67;;;11.63;;
6269;SDS011;3168;51.684;6.954;2023-12-14T08:26:04;16.40;;;8.23;;
6269;SDS011;3168;51.684;6.954;2023-12-14T08:28:30;16.73;;;10.77;;
6269;SDS011;3168;51.684;6.954;2023-12-14T08:30:55;19.67;;;12.00;;
6269;SDS011;3168;51.684;6.954;2023-12-14T08:33:21;22.17;;;13.67;;
6269;SDS011;3168;51.684;6.954;2023-12-14T08:35:47;21.10;;;12.80;;
6269;SDS011;3168;51.684;6.954;2023-12-14T08:38:13;22.50;;;11.10;;
6269;SDS011;3168;51.684;6.954;2023-12-14T08:40:39;16.60;;;10.77;;
6269;SDS011;3168;51.684;6.954;2023-12-14T08:43:05;14.10;;;9.00;;
6269;SDS011;3168;51.684;6.954;2023-12-14T08:45:31;19.83;;;12.03;;
6269;SDS011;3168;51.684;6.954;2023-12-14T08:47:57;15.13;;;10.20;;
6269;SDS011;3168;51.684;6.954;2023-12-14T08:50:22;21.10;;;11.83;;
6269;SDS011;3168;51.684;6.954;2023-12-14T08:52:48;21.80;;;11.80;;
6269;SDS011;3168;51.684;6.954;2023-12-14T08:55:14;21.20;;;11.37;;
6269;SDS011;3168;51.684;6.954;2023-12-14T08:57:40;24.27;;;13.37;;
6269;SDS011;3168;51.684;6.954;2023-12-14T09:00:06;18.23;;;12.23;;
6269;SDS011;3168;51.684;6.954;2023-12-14T09:02:34;15.83;;;11.73;;
6269;SDS011;3168;51.684;6.954;2023-12-14T09:04:59;20.93;;;11.60;;
6269;SDS011;3168;51.684;6.954;2023-12-14T09:07:24;17.67;;;9.83;;
6269;SDS011;3168;51.684;6.954;2023-12-14T09:09:50;19.40;;;11.03;;
6269;SDS011;3168;51.684;6.954;2023-12-14T09:12:16;12.53;;;8.47;;
6269;SDS011;3168;51.684;6.954;2023-12-14T09:14:42;14.37;;;9.20;;
6269;SDS011;3168;51.684;6.954;2023-12-14T09:17:08;20.30;;;10.50;;
6269;SDS011;3168;51.684;6.954;2023-12-14T09:19:34;11.30;;;7.57;;
6269;SDS011;3168;51.684;6.954;2023-12-14T09:22:00;15.60;;;8.47;;
6269;SDS011;3168;51.684;6.954;2023-12-14T09:24:26;10.97;;;8.47;;
6269;SDS011;3168;51.684;6.954;2023-12-14T09:26:52;15.17;;;10.23;;
6269;SDS011;3168;51.684;6.954;2023-12-14T09:29:17;11.00;;;8.40;;
6269;SDS011;3168;51.684;6.954;2023-12-14T09:31:44;18.33;;;8.20;;
6269;SDS011;3168;51.684;6.954;2023-12-14T09:34:10;11.13;;;7.20;;
6269;SDS011;3168;51.684;6.954;2023-12-14T09:36:36;7.43;;;6.60;;
6269;SDS011;3168;51.684;6.954;2023-12-14T09:39:02;9.63;;;8.67;;
6269;SDS011;3168;51.684;6.954;2023-12-14T09:41:28;10.43;;;7.23;;
6269;SDS011;3168;51.684;6.954;2023-12-14T09:43:54;17.43;;;8.50;;
6269;SDS011;3168;51.684;6.954;2023-12-14T09:46:19;16.73;;;7.83;;
6269;SDS011;3168;51.684;6.954;2023-12-14T09:48:46;15.77;;;9.33;;
6269;SDS011;3168;51.684;6.954;2023-12-14T09:51:11;12.70;;;9.20;;
6269;SDS011;3168;51.684;6.954;2023-12-14T09:53:37;7.97;;;7.13;;
6269;SDS011;3168;51.684;6.954;2023-12-14T09:56:03;13.00;;;7.60;;
6269;SDS011;3168;51.684;6.954;2023-12-14T09:58:32;21.87;;;8.57;;
6269;SDS011;3168;51.684;6.954;2023-12-14T10:00:57;16.80;;;8.50;;
6269;SDS011;3168;51.684;6.954;2023-12-14T10:03:24;14.40;;;8.53;;
6269;SDS011;3168;51.684;6.954;2023-12-14T10:05:49;11.03;;;7.93;;
6269;SDS011;3168;51.684;6.954;2023-12-14T10:08:15;12.13;;;7.10;;
6269;SDS011;3168;51.684;6.954;2023-12-14T10:10:41;9.63;;;7.23;;
6269;SDS011;3168;51.684;6.954;2023-12-14T10:13:07;16.57;;;9.87;;
6269;SDS011;3168;51.684;6.954;2023-12-14T10:15:42;14.00;;;8.03;;
6269;SDS011;3168;51.684;6.954;2023-12-14T10:18:08;18.20;;;10.13;;
6269;SDS011;3168;51.684;6.954;2023-12-14T10:20:34;10.27;;;7.67;;
6269;SDS011;3168;51.684;6.954;2023-12-14T10:23:00;14.73;;;11.30;;
6269;SDS011;3168;51.684;6.954;2023-12-14T10:25:25;7.63;;;6.53;;
6269;SDS011;3168;51.684;6.954;2023-12-14T10:27:51;12.90;;;7.20;;
6269;SDS011;3168;51.684;6.954;2023-12-14T10:30:17;9.47;;;7.37;;
6269;SDS011;3168;51.684;6.954;2023-12-14T10:32:43;12.83;;;8.30;;
6269;SDS011;3168;51.684;6.954;2023-12-14T10:35:09;9.33;;;6.47;;
6269;SDS011;3168;51.684;6.954;2023-12-14T10:37:37;9.00;;;7.43;;
6269;SDS011;3168;51.684;6.954;2023-12-14T10:40:01;13.23;;;9.40;;
6269;SDS011;3168;51.684;6.954;2023-12-14T10:42:27;13.13;;;8.23;;
6269;SDS011;3168;51.684;6.954;2023-12-14T10:44:53;12.07;;;6.90;;
6269;SDS011;3168;51.684;6.954;2023-12-14T10:47:19;9.57;;;8.00;;
6269;SDS011;3168;51.684;6.954;2023-12-14T10:49:46;10.73;;;7.23;;
6269;SDS011;3168;51.684;6.954;2023-12-14T10:52:11;8.10;;;7.30;;
6269;SDS011;3168;51.684;6.954;2023-12-14T10:54:37;8.40;;;7.13;;
6269;SDS011;3168;51.684;6.954;2023-12-14T10:57:03;16.07;;;10.00;;
6269;SDS011;3168;51.684;6.954;2023-12-14T10:59:30;21.73;;;9.17;;
6269;SDS011;3168;51.684;6.954;2023-12-14T11:01:55;22.77;;;12.43;;
6269;SDS011;3168;51.684;6.954;2023-12-14T11:04:21;29.83;;;13.73;;
6269;SDS011;3168;51.684;6.954;2023-12-14T11:06:47;17.67;;;10.00;;
6269;SDS011;3168;51.684;6.954;2023-12-14T11:09:13;8.97;;;7.17;;
6269;SDS011;3168;51.684;6.954;2023-12-14T11:11:40;11.40;;;7.37;;
6269;SDS011;3168;51.684;6.954;2023-12-14T11:14:05;11.33;;;7.87;;
6269;SDS011;3168;51.684;6.954;2023-12-14T11:16:31;14.03;;;8.83;;
6269;SDS011;3168;51.684;6.954;2023-12-14T11:19:23;13.67;;;8.33;;
6269;SDS011;3168;51.684;6.954;2023-12-14T11:21:30;13.30;;;8.47;;
6269;SDS011;3168;51.684;6.954;2023-12-14T11:23:56;7.73;;;6.87;;
6269;SDS011;3168;51.684;6.954;2023-12-14T11:26:22;11.63;;;7.27;;
6269;SDS011;3168;51.684;6.954;2023-12-14T11:28:49;10.27;;;8.20;;
6269;SDS011;3168;51.684;6.954;2023-12-14T11:31:15;19.40;;;10.17;;
6269;SDS011;3168;51.684;6.954;2023-12-14T11:33:41;14.67;;;8.13;;
6269;SDS011;3168;51.684;6.954;2023-12-14T11:36:07;10.80;;;8.43;;
6269;SDS011;3168;51.684;6.954;2023-12-14T11:38:33;21.13;;;7.77;;
6269;SDS011;3168;51.684;6.954;2023-12-14T11:40:59;9.57;;;7.80;;
6269;SDS011;3168;51.684;6.954;2023-12-14T11:43:25;13.57;;;8.50;;
6269;SDS011;3168;51.684;6.954;2023-12-14T11:45:51;12.33;;;8.70;;
6269;SDS011;3168;51.684;6.954;2023-12-14T11:48:17;8.00;;;6.10;;
6269;SDS011;3168;51.684;6.954;2023-12-14T11:50:43;12.77;;;8.77;;
6269;SDS011;3168;51.684;6.954;2023-12-14T11:53:09;10.13;;;7.77;;
6269;SDS011;3168;51.684;6.954;2023-12-14T11:55:36;12.20;;;7.50;;
6269;SDS011;3168;51.684;6.954;2023-12-14T11:58:01;12.30;;;7.30;;
6269;SDS011;3168;51.684;6.954;2023-12-14T12:00:27;9.87;;;7.73;;
6269;SDS011;3168;51.684;6.954;2023-12-14T12:05:34;10.47;;;7.40;;
6269;SDS011;3168;51.684;6.954;2023-12-14T12:08:00;12.27;;;7.70;;
6269;SDS011;3168;51.684;6.954;2023-12-14T12:10:26;8.60;;;7.70;;
6269;SDS011;3168;51.684;6.954;2023-12-14T12:12:58;10.03;;;8.40;;
6269;SDS011;3168;51.684;6.954;2023-12-14T12:15:18;13.40;;;7.70;;
6269;SDS011;3168;51.684;6.954;2023-12-14T12:17:44;10.23;;;8.30;;
6269;SDS011;3168;51.684;6.954;2023-12-14T12:20:11;20.07;;;8.40;;
6269;SDS011;3168;51.684;6.954;2023-12-14T12:22:37;13.07;;;8.20;;
6269;SDS011;3168;51.684;6.954;2023-12-14T12:25:04;11.90;;;7.57;;
6269;SDS011;3168;51.684;6.954;2023-12-14T12:27:30;10.73;;;7.73;;
6269;SDS011;3168;51.684;6.954;2023-12-14T12:29:56;19.93;;;10.10;;
6269;SDS011;3168;51.684;6.954;2023-12-14T12:32:22;9.30;;;7.17;;
6269;SDS011;3168;51.684;6.954;2023-12-14T12:34:48;14.83;;;8.27;;
6269;SDS011;3168;51.684;6.954;2023-12-14T12:37:13;14.90;;;9.60;;
6269;SDS011;3168;51.684;6.954;2023-12-14T12:39:39;13.37;;;7.77;;
6269;SDS011;3168;51.684;6.954;2023-12-14T12:42:05;14.80;;;8.50;;
6269;SDS011;3168;51.684;6.954;2023-12-14T12:44:31;12.97;;;8.93;;
6269;SDS011;3168;51.684;6.954;2023-12-14T12:46:57;11.90;;;7.13;;
6269;SDS011;3168;51.684;6.954;2023-12-14T12:49:23;9.13;;;6.63;;
6269;SDS011;3168;51.684;6.954;2023-12-14T12:51:48;50.70;;;19.73;;
6269;SDS011;3168;51.684;6.954;2023-12-14T12:54:14;10.23;;;8.63;;
6269;SDS011;3168;51.684;6.954;2023-12-14T12:56:40;19.20;;;9.60;;
6269;SDS011;3168;51.684;6.954;2023-12-14T12:59:06;14.70;;;10.60;;
6269;SDS011;3168;51.684;6.954;2023-12-14T13:01:32;15.60;;;9.30;;
6269;SDS011;3168;51.684;6.954;2023-12-14T13:03:58;14.90;;;9.37;;
6269;SDS011;3168;51.684;6.954;2023-12-14T13:06:24;16.10;;;10.10;;
6269;SDS011;3168;51.684;6.954;2023-12-14T13:08:50;13.77;;;9.13;;
6269;SDS011;3168;51.684;6.954;2023-12-14T13:11:16;10.20;;;8.43;;
6269;SDS011;3168;51.684;6.954;2023-12-14T13:13:42;18.83;;;9.23;;
6269;SDS011;3168;51.684;6.954;2023-12-14T13:16:08;20.07;;;10.27;;
6269;SDS011;3168;51.684;6.954;2023-12-14T13:18:34;36.05;;;9.90;;
6269;SDS011;3168;51.684;6.954;2023-12-14T13:21:00;20.60;;;9.43;;
6269;SDS011;3168;51.684;6.954;2023-12-14T13:23:26;25.90;;;10.37;;
6269;SDS011;3168;51.684;6.954;2023-12-14T13:25:52;12.73;;;9.53;;
6269;SDS011;3168;51.684;6.954;2023-12-14T13:28:18;13.87;;;8.47;;
6269;SDS011;3168;51.684;6.954;2023-12-14T13:30:44;15.90;;;8.87;;
6269;SDS011;3168;51.684;6.954;2023-12-14T13:33:10;12.27;;;8.23;;
6269;SDS011;3168;51.684;6.954;2023-12-14T13:35:36;7.87;;;7.00;;
6269;SDS011;3168;51.684;6.954;2023-12-14T13:38:01;18.33;;;10.93;;
6269;SDS011;3168;51.684;6.954;2023-12-14T13:40:27;17.33;;;9.87;;
6269;SDS011;3168;51.684;6.954;2023-12-14T13:42:53;13.20;;;9.73;;
6269;SDS011;3168;51.684;6.954;2023-12-14T13:45:19;12.87;;;8.20;;
6269;SDS011;3168;51.684;6.954;2023-12-14T13:47:45;11.70;;;8.77;;
6269;SDS011;3168;51.684;6.954;2023-12-14T13:50:11;10.67;;;8.13;;
6269;SDS011;3168;51.684;6.954;2023-12-14T13:52:36;13.43;;;8.07;;
6269;SDS011;3168;51.684;6.954;2023-12-14T13:55:03;11.73;;;7.33;;
6269;SDS011;3168;51.684;6.954;2023-12-14T13:57:29;11.30;;;8.80;;
6269;SDS011;3168;51.684;6.954;2023-12-14T13:59:55;16.77;;;9.83;;
6269;SDS011;3168;51.684;6.954;2023-12-14T14:02:20;19.57;;;14.10;;
6269;SDS011;3168;51.684;6.954;2023-12-14T14:04:47;19.30;;;12.60;;
6269;SDS011;3168;51.684;6.954;2023-12-14T14:07:13;13.07;;;7.53;;
6269;SDS011;3168;51.684;6.954;2023-12-14T14:09:39;17.93;;;8.80;;
6269;SDS011;3168;51.684;6.954;2023-12-14T14:12:05;22.60;;;12.97;;
6269;SDS011;3168;51.684;6.954;2023-12-14T14:14:31;17.37;;;13.53;;
6269;SDS011;3168;51.684;6.954;2023-12-14T14:16:57;8.50;;;6.23;;
6269;SDS011;3168;51.684;6.954;2023-12-14T14:19:22;7.28;;;5.85;;
6269;SDS011;3168;51.684;6.954;2023-12-14T14:21:48;12.40;;;7.07;;
6269;SDS011;3168;51.684;6.954;2023-12-14T14:24:14;8.20;;;6.17;;
6269;SDS011;3168;51.684;6.954;2023-12-14T14:26:40;7.90;;;6.37;;
6269;SDS011;3168;51.684;6.954;2023-12-14T14:29:07;7.77;;;5.20;;
6269;SDS011;3168;51.684;6.954;2023-12-14T14:31:33;8.13;;;6.13;;
6269;SDS011;3168;51.684;6.954;2023-12-14T14:33:59;8.37;;;5.70;;
6269;SDS011;3168;51.684;6.954;2023-12-14T14:36:25;8.50;;;6.33;;
6269;SDS011;3168;51.684;6.954;2023-12-14T14:38:51;5.50;;;5.10;;
6269;SDS011;3168;51.684;6.954;2023-12-14T14:41:18;6.63;;;5.73;;
6269;SDS011;3168;51.684;6.954;2023-12-14T14:43:43;6.50;;;5.33;;
6269;SDS011;3168;51.684;6.954;2023-12-14T14:46:09;9.00;;;6.00;;
6269;SDS011;3168;51.684;6.954;2023-12-14T14:48:35;11.67;;;7.47;;
6269;SDS011;3168;51.684;6.954;2023-12-14T14:51:01;7.10;;;5.93;;
6269;SDS011;3168;51.684;6.954;2023-12-14T14:53:27;5.63;;;4.63;;
6269;SDS011;3168;51.684;6.954;2023-12-14T14:55:53;10.33;;;6.07;;